Accueil
METAR-TAF:

METAR-TAF

Aéroports :

Tchita, Russie

latitude: 52-05N, longitude: 113-29E, altitude: 685 m

Observation

Le bulletin a été fait il y a 28 minutes, à 04:30 UTC
Vent 4 kt de ouest, variant entre sud-ouest et nord-ouest
Température -7°C
Humidité 41%
Pression 1023 hPa
Visibilité 10 km ou plus

METAR: UIAA 160430Z 28002MPS 230V320 9999 NSC M07/M18 Q1023 R29/410150 NOSIG RMK QFE708/0944

Heure: 13:58 (04:58 UTC)

Prévision

Le bulletin a été fait il y a 2 heures et 58 minutes, à 02:00 UTC
Prévision valable du 16 à 03 UTC au 17 à 03 UTC
Vent 12 kt de sud-ouest avec des rafales jusqu'à 25 kt
Visibilité 10 km ou plus
Temporairement
du 16 à 03 UTC au 16 à 24 UTC
Vent 6 kt de ouest/nord-ouest avec des rafales jusqu'à 16 kt

TAF: UIAA 160200Z 1603/1703 23006G13MPS 9999 NSC TEMPO 1603/1624 29003G08MPS

Observations et prévisions météorologiques de plus de 4000 aéroports (messages METAR et TAF).

Les stations disponibles sont représentées par des disques jaunes et rouges sur la carte.

Passer la souris dessus pour voir le nom de la station.

Cliquer dessus pour voir les observations et prévisions météorologiques.

Pour changer de carte: cliquez sur les boutons verts avec une croix noire pour zoomer, sur le bouton vert avec un tiret pour effectuer un zoom arrière, ou sur les flèches vertes pour les cartes adjacentes.


METAR-TAF: